sensor_id;sensor_type;location;lat;lon;timestamp;P1;durP1;ratioP1;P2;durP2;ratioP2
2031;SDS011;27625;50.422;7.944;2023-05-27T00:02:42;66.73;;;62.70;;
2031;SDS011;27625;50.422;7.944;2023-05-27T00:05:12;95.80;;;89.47;;
2031;SDS011;27625;50.422;7.944;2023-05-27T00:10:32;103.97;;;97.07;;
2031;SDS011;27625;50.422;7.944;2023-05-27T00:13:00;151.70;;;140.53;;
2031;SDS011;27625;50.422;7.944;2023-05-27T00:15:28;141.07;;;126.97;;
2031;SDS011;27625;50.422;7.944;2023-05-27T00:17:59;169.43;;;152.77;;
2031;SDS011;27625;50.422;7.944;2023-05-27T00:22:59;166.37;;;151.53;;
2031;SDS011;27625;50.422;7.944;2023-05-27T00:25:25;160.50;;;147.67;;
2031;SDS011;27625;50.422;7.944;2023-05-27T00:27:55;156.60;;;143.00;;
2031;SDS011;27625;50.422;7.944;2023-05-27T00:30:29;130.97;;;121.63;;
2031;SDS011;27625;50.422;7.944;2023-05-27T00:32:58;145.20;;;133.83;;
2031;SDS011;27625;50.422;7.944;2023-05-27T00:35:26;145.17;;;133.57;;
2031;SDS011;27625;50.422;7.944;2023-05-27T00:37:52;158.20;;;145.17;;
2031;SDS011;27625;50.422;7.944;2023-05-27T00:40:20;173.23;;;157.40;;
2031;SDS011;27625;50.422;7.944;2023-05-27T00:42:58;150.37;;;134.20;;
2031;SDS011;27625;50.422;7.944;2023-05-27T00:45:26;124.70;;;116.60;;
2031;SDS011;27625;50.422;7.944;2023-05-27T00:47:53;124.63;;;115.73;;
2031;SDS011;27625;50.422;7.944;2023-05-27T00:50:21;114.97;;;106.90;;
2031;SDS011;27625;50.422;7.944;2023-05-27T00:52:51;122.33;;;112.93;;
2031;SDS011;27625;50.422;7.944;2023-05-27T00:55:22;105.17;;;98.17;;
2031;SDS011;27625;50.422;7.944;2023-05-27T00:57:54;109.30;;;102.13;;
2031;SDS011;27625;50.422;7.944;2023-05-27T01:00:21;79.97;;;74.77;;
2031;SDS011;27625;50.422;7.944;2023-05-27T01:02:57;113.40;;;105.17;;
2031;SDS011;27625;50.422;7.944;2023-05-27T01:05:28;91.83;;;86.17;;
2031;SDS011;27625;50.422;7.944;2023-05-27T01:08:02;131.80;;;123.40;;
2031;SDS011;27625;50.422;7.944;2023-05-27T01:10:35;114.30;;;106.27;;
2031;SDS011;27625;50.422;7.944;2023-05-27T01:13:06;160.20;;;149.53;;
2031;SDS011;27625;50.422;7.944;2023-05-27T01:15:39;66.87;;;62.90;;
2031;SDS011;27625;50.422;7.944;2023-05-27T01:18:08;88.17;;;82.43;;
2031;SDS011;27625;50.422;7.944;2023-05-27T01:20:38;100.53;;;93.80;;
2031;SDS011;27625;50.422;7.944;2023-05-27T01:23:07;80.63;;;75.33;;
2031;SDS011;27625;50.422;7.944;2023-05-27T01:25:35;76.17;;;71.37;;
2031;SDS011;27625;50.422;7.944;2023-05-27T01:28:02;117.97;;;109.57;;
2031;SDS011;27625;50.422;7.944;2023-05-27T01:30:30;67.80;;;63.73;;
2031;SDS011;27625;50.422;7.944;2023-05-27T01:32:59;86.80;;;81.50;;
2031;SDS011;27625;50.422;7.944;2023-05-27T01:35:40;71.77;;;67.63;;
2031;SDS011;27625;50.422;7.944;2023-05-27T01:38:13;67.00;;;63.00;;
2031;SDS011;27625;50.422;7.944;2023-05-27T01:43:14;67.93;;;63.67;;
2031;SDS011;27625;50.422;7.944;2023-05-27T01:45:43;61.63;;;57.90;;
2031;SDS011;27625;50.422;7.944;2023-05-27T01:50:40;78.23;;;73.40;;
2031;SDS011;27625;50.422;7.944;2023-05-27T01:53:12;82.17;;;77.37;;
2031;SDS011;27625;50.422;7.944;2023-05-27T01:55:40;61.47;;;57.57;;
2031;SDS011;27625;50.422;7.944;2023-05-27T01:58:06;77.70;;;72.90;;
2031;SDS011;27625;50.422;7.944;2023-05-27T02:00:33;54.73;;;51.47;;
2031;SDS011;27625;50.422;7.944;2023-05-27T02:03:00;70.67;;;66.40;;
2031;SDS011;27625;50.422;7.944;2023-05-27T02:05:27;60.63;;;57.07;;
2031;SDS011;27625;50.422;7.944;2023-05-27T02:07:54;70.77;;;66.37;;
2031;SDS011;27625;50.422;7.944;2023-05-27T02:10:24;90.67;;;85.23;;
2031;SDS011;27625;50.422;7.944;2023-05-27T02:12:50;51.70;;;48.40;;
2031;SDS011;27625;50.422;7.944;2023-05-27T02:15:18;72.47;;;68.27;;
2031;SDS011;27625;50.422;7.944;2023-05-27T02:17:48;50.53;;;47.43;;
2031;SDS011;27625;50.422;7.944;2023-05-27T02:20:20;47.03;;;44.20;;
2031;SDS011;27625;50.422;7.944;2023-05-27T02:22:49;55.87;;;52.60;;
2031;SDS011;27625;50.422;7.944;2023-05-27T02:25:20;65.40;;;61.60;;
2031;SDS011;27625;50.422;7.944;2023-05-27T02:30:21;45.27;;;42.57;;
2031;SDS011;27625;50.422;7.944;2023-05-27T02:32:49;41.13;;;38.70;;
2031;SDS011;27625;50.422;7.944;2023-05-27T02:35:17;40.60;;;38.13;;
2031;SDS011;27625;50.422;7.944;2023-05-27T02:37:45;59.23;;;55.73;;
2031;SDS011;27625;50.422;7.944;2023-05-27T02:40:22;45.87;;;43.20;;
2031;SDS011;27625;50.422;7.944;2023-05-27T02:42:50;56.63;;;53.27;;
2031;SDS011;27625;50.422;7.944;2023-05-27T02:45:18;39.77;;;37.47;;
2031;SDS011;27625;50.422;7.944;2023-05-27T02:47:45;41.67;;;39.10;;
2031;SDS011;27625;50.422;7.944;2023-05-27T02:50:14;63.13;;;59.33;;
2031;SDS011;27625;50.422;7.944;2023-05-27T02:52:45;50.60;;;47.53;;
2031;SDS011;27625;50.422;7.944;2023-05-27T02:55:13;36.33;;;34.03;;
2031;SDS011;27625;50.422;7.944;2023-05-27T02:57:43;38.47;;;36.23;;
2031;SDS011;27625;50.422;7.944;2023-05-27T03:00:10;43.67;;;40.97;;
2031;SDS011;27625;50.422;7.944;2023-05-27T03:02:41;41.30;;;38.90;;
2031;SDS011;27625;50.422;7.944;2023-05-27T03:05:09;36.17;;;33.87;;
2031;SDS011;27625;50.422;7.944;2023-05-27T03:07:36;39.90;;;37.50;;
2031;SDS011;27625;50.422;7.944;2023-05-27T03:10:05;31.83;;;29.67;;
2031;SDS011;27625;50.422;7.944;2023-05-27T03:12:34;41.27;;;39.00;;
2031;SDS011;27625;50.422;7.944;2023-05-27T03:15:03;37.97;;;35.57;;
2031;SDS011;27625;50.422;7.944;2023-05-27T03:17:31;37.63;;;35.37;;
2031;SDS011;27625;50.422;7.944;2023-05-27T03:20:00;43.33;;;41.03;;
2031;SDS011;27625;50.422;7.944;2023-05-27T03:22:34;36.47;;;34.30;;
2031;SDS011;27625;50.422;7.944;2023-05-27T03:25:01;25.13;;;23.33;;
2031;SDS011;27625;50.422;7.944;2023-05-27T03:27:31;38.57;;;36.33;;
2031;SDS011;27625;50.422;7.944;2023-05-27T03:30:00;39.87;;;37.73;;
2031;SDS011;27625;50.422;7.944;2023-05-27T03:32:28;27.73;;;26.33;;
2031;SDS011;27625;50.422;7.944;2023-05-27T03:34:57;32.73;;;30.97;;
2031;SDS011;27625;50.422;7.944;2023-05-27T03:37:25;32.33;;;30.30;;
2031;SDS011;27625;50.422;7.944;2023-05-27T03:40:01;33.60;;;31.67;;
2031;SDS011;27625;50.422;7.944;2023-05-27T03:42:31;41.03;;;38.53;;
2031;SDS011;27625;50.422;7.944;2023-05-27T03:44:58;39.87;;;37.67;;
2031;SDS011;27625;50.422;7.944;2023-05-27T03:47:26;40.10;;;37.83;;
2031;SDS011;27625;50.422;7.944;2023-05-27T03:49:53;27.50;;;25.97;;
2031;SDS011;27625;50.422;7.944;2023-05-27T03:52:20;33.40;;;31.70;;
2031;SDS011;27625;50.422;7.944;2023-05-27T03:54:48;40.87;;;38.87;;
2031;SDS011;27625;50.422;7.944;2023-05-27T03:57:15;37.77;;;35.63;;
2031;SDS011;27625;50.422;7.944;2023-05-27T03:59:42;30.67;;;28.80;;
2031;SDS011;27625;50.422;7.944;2023-05-27T04:02:08;59.07;;;55.73;;
2031;SDS011;27625;50.422;7.944;2023-05-27T04:04:35;29.23;;;27.50;;
2031;SDS011;27625;50.422;7.944;2023-05-27T04:07:03;48.33;;;45.53;;
2031;SDS011;27625;50.422;7.944;2023-05-27T04:09:30;36.30;;;34.37;;
2031;SDS011;27625;50.422;7.944;2023-05-27T04:11:59;46.83;;;44.27;;
2031;SDS011;27625;50.422;7.944;2023-05-27T04:14:27;48.17;;;45.47;;
2031;SDS011;27625;50.422;7.944;2023-05-27T04:16:54;60.03;;;56.60;;
2031;SDS011;27625;50.422;7.944;2023-05-27T04:19:21;75.57;;;70.83;;
2031;SDS011;27625;50.422;7.944;2023-05-27T04:21:48;42.17;;;39.80;;
2031;SDS011;27625;50.422;7.944;2023-05-27T04:24:16;54.83;;;51.57;;
2031;SDS011;27625;50.422;7.944;2023-05-27T04:26:45;45.27;;;42.30;;
2031;SDS011;27625;50.422;7.944;2023-05-27T04:29:15;75.13;;;70.53;;
2031;SDS011;27625;50.422;7.944;2023-05-27T04:31:43;52.63;;;49.20;;
2031;SDS011;27625;50.422;7.944;2023-05-27T04:34:14;85.30;;;79.57;;
2031;SDS011;27625;50.422;7.944;2023-05-27T04:36:40;70.23;;;66.03;;
2031;SDS011;27625;50.422;7.944;2023-05-27T04:39:12;69.87;;;65.23;;
2031;SDS011;27625;50.422;7.944;2023-05-27T04:41:42;115.50;;;108.07;;
2031;SDS011;27625;50.422;7.944;2023-05-27T04:44:11;81.17;;;75.77;;
2031;SDS011;27625;50.422;7.944;2023-05-27T04:46:42;98.23;;;92.03;;
2031;SDS011;27625;50.422;7.944;2023-05-27T04:49:10;97.63;;;90.90;;
2031;SDS011;27625;50.422;7.944;2023-05-27T04:51:37;124.53;;;116.00;;
2031;SDS011;27625;50.422;7.944;2023-05-27T04:56:37;119.80;;;110.67;;
2031;SDS011;27625;50.422;7.944;2023-05-27T04:59:07;112.20;;;104.13;;
2031;SDS011;27625;50.422;7.944;2023-05-27T05:01:42;129.60;;;119.13;;
2031;SDS011;27625;50.422;7.944;2023-05-27T05:04:35;116.57;;;107.63;;
2031;SDS011;27625;50.422;7.944;2023-05-27T05:07:13;137.97;;;126.40;;
2031;SDS011;27625;50.422;7.944;2023-05-27T05:09:45;151.20;;;139.37;;
2031;SDS011;27625;50.422;7.944;2023-05-27T05:12:25;164.50;;;147.27;;
2031;SDS011;27625;50.422;7.944;2023-05-27T05:14:55;192.10;;;154.47;;
2031;SDS011;27625;50.422;7.944;2023-05-27T05:17:25;208.17;;;178.20;;
2031;SDS011;27625;50.422;7.944;2023-05-27T05:19:52;169.13;;;149.83;;
2031;SDS011;27625;50.422;7.944;2023-05-27T05:22:20;117.07;;;104.90;;
2031;SDS011;27625;50.422;7.944;2023-05-27T05:24:49;124.90;;;101.40;;
2031;SDS011;27625;50.422;7.944;2023-05-27T05:27:17;125.30;;;112.43;;
2031;SDS011;27625;50.422;7.944;2023-05-27T05:29:45;145.43;;;125.67;;
2031;SDS011;27625;50.422;7.944;2023-05-27T05:32:14;79.53;;;63.97;;
2031;SDS011;27625;50.422;7.944;2023-05-27T05:34:42;105.27;;;77.70;;
2031;SDS011;27625;50.422;7.944;2023-05-27T05:37:11;161.33;;;78.10;;
2031;SDS011;27625;50.422;7.944;2023-05-27T05:39:40;83.13;;;66.83;;
2031;SDS011;27625;50.422;7.944;2023-05-27T05:42:09;145.53;;;97.13;;
2031;SDS011;27625;50.422;7.944;2023-05-27T05:44:38;121.57;;;66.67;;
2031;SDS011;27625;50.422;7.944;2023-05-27T05:47:05;207.40;;;94.60;;
2031;SDS011;27625;50.422;7.944;2023-05-27T05:49:36;112.23;;;79.60;;
2031;SDS011;27625;50.422;7.944;2023-05-27T05:52:06;143.90;;;85.33;;
2031;SDS011;27625;50.422;7.944;2023-05-27T05:54:33;139.73;;;70.47;;
2031;SDS011;27625;50.422;7.944;2023-05-27T05:57:00;111.87;;;67.17;;
2031;SDS011;27625;50.422;7.944;2023-05-27T05:59:28;134.30;;;74.73;;
2031;SDS011;27625;50.422;7.944;2023-05-27T06:01:57;129.20;;;78.87;;
2031;SDS011;27625;50.422;7.944;2023-05-27T06:04:26;157.90;;;96.77;;
2031;SDS011;27625;50.422;7.944;2023-05-27T06:06:54;177.20;;;81.07;;
2031;SDS011;27625;50.422;7.944;2023-05-27T06:09:30;69.43;;;52.60;;
2031;SDS011;27625;50.422;7.944;2023-05-27T06:12:03;169.77;;;86.80;;
2031;SDS011;27625;50.422;7.944;2023-05-27T06:14:38;84.97;;;58.83;;
2031;SDS011;27625;50.422;7.944;2023-05-27T06:17:13;149.10;;;85.90;;
2031;SDS011;27625;50.422;7.944;2023-05-27T06:19:40;84.70;;;61.40;;
2031;SDS011;27625;50.422;7.944;2023-05-27T06:22:10;148.17;;;82.47;;
2031;SDS011;27625;50.422;7.944;2023-05-27T06:25:05;81.57;;;70.13;;
2031;SDS011;27625;50.422;7.944;2023-05-27T06:27:50;183.80;;;102.93;;
2031;SDS011;27625;50.422;7.944;2023-05-27T06:30:28;207.53;;;111.90;;
2031;SDS011;27625;50.422;7.944;2023-05-27T06:32:58;88.83;;;70.40;;
2031;SDS011;27625;50.422;7.944;2023-05-27T06:35:32;159.93;;;100.67;;
2031;SDS011;27625;50.422;7.944;2023-05-27T06:37:59;178.47;;;98.77;;
2031;SDS011;27625;50.422;7.944;2023-05-27T06:40:34;141.23;;;82.00;;
2031;SDS011;27625;50.422;7.944;2023-05-27T06:43:01;238.83;;;128.13;;
2031;SDS011;27625;50.422;7.944;2023-05-27T06:45:52;138.33;;;59.87;;
2031;SDS011;27625;50.422;7.944;2023-05-27T06:48:27;182.40;;;98.10;;
2031;SDS011;27625;50.422;7.944;2023-05-27T06:50:56;168.07;;;82.80;;
2031;SDS011;27625;50.422;7.944;2023-05-27T06:53:26;110.63;;;61.83;;
2031;SDS011;27625;50.422;7.944;2023-05-27T06:56:01;157.70;;;81.67;;
2031;SDS011;27625;50.422;7.944;2023-05-27T06:58:47;135.90;;;71.53;;
2031;SDS011;27625;50.422;7.944;2023-05-27T07:01:16;86.67;;;49.10;;
2031;SDS011;27625;50.422;7.944;2023-05-27T07:03:52;127.93;;;65.57;;
2031;SDS011;27625;50.422;7.944;2023-05-27T07:06:47;169.13;;;102.27;;
2031;SDS011;27625;50.422;7.944;2023-05-27T07:09:21;78.87;;;51.80;;
2031;SDS011;27625;50.422;7.944;2023-05-27T07:11:49;36.03;;;29.80;;
2031;SDS011;27625;50.422;7.944;2023-05-27T07:14:35;86.03;;;52.30;;
2031;SDS011;27625;50.422;7.944;2023-05-27T07:17:02;124.17;;;84.73;;
2031;SDS011;27625;50.422;7.944;2023-05-27T07:19:30;146.10;;;80.40;;
2031;SDS011;27625;50.422;7.944;2023-05-27T07:22:01;125.87;;;85.07;;
2031;SDS011;27625;50.422;7.944;2023-05-27T07:24:30;142.73;;;83.90;;
2031;SDS011;27625;50.422;7.944;2023-05-27T07:27:00;80.97;;;57.33;;
2031;SDS011;27625;50.422;7.944;2023-05-27T07:29:29;72.83;;;61.60;;
2031;SDS011;27625;50.422;7.944;2023-05-27T07:32:16;74.23;;;61.13;;
2031;SDS011;27625;50.422;7.944;2023-05-27T07:34:44;54.07;;;37.73;;
2031;SDS011;27625;50.422;7.944;2023-05-27T07:37:14;67.57;;;54.77;;
2031;SDS011;27625;50.422;7.944;2023-05-27T07:39:42;45.77;;;39.27;;
2031;SDS011;27625;50.422;7.944;2023-05-27T07:42:15;23.77;;;20.90;;
2031;SDS011;27625;50.422;7.944;2023-05-27T07:44:43;23.27;;;19.63;;
2031;SDS011;27625;50.422;7.944;2023-05-27T07:47:15;29.00;;;24.63;;
2031;SDS011;27625;50.422;7.944;2023-05-27T07:49:41;22.73;;;19.17;;
2031;SDS011;27625;50.422;7.944;2023-05-27T07:52:44;14.03;;;11.27;;
2031;SDS011;27625;50.422;7.944;2023-05-27T07:55:25;20.13;;;17.90;;
2031;SDS011;27625;50.422;7.944;2023-05-27T07:57:54;27.60;;;21.50;;
2031;SDS011;27625;50.422;7.944;2023-05-27T08:00:24;29.90;;;22.43;;
2031;SDS011;27625;50.422;7.944;2023-05-27T08:02:52;37.20;;;30.13;;
2031;SDS011;27625;50.422;7.944;2023-05-27T08:05:32;26.03;;;21.23;;
2031;SDS011;27625;50.422;7.944;2023-05-27T08:08:19;19.00;;;15.73;;
2031;SDS011;27625;50.422;7.944;2023-05-27T08:11:06;37.67;;;33.83;;
2031;SDS011;27625;50.422;7.944;2023-05-27T08:13:50;39.63;;;32.07;;
2031;SDS011;27625;50.422;7.944;2023-05-27T08:16:34;22.60;;;13.70;;
2031;SDS011;27625;50.422;7.944;2023-05-27T08:19:40;12.13;;;6.30;;
2031;SDS011;27625;50.422;7.944;2023-05-27T08:22:19;22.30;;;15.93;;
2031;SDS011;27625;50.422;7.944;2023-05-27T08:24:58;11.80;;;6.00;;
2031;SDS011;27625;50.422;7.944;2023-05-27T08:27:46;11.70;;;6.43;;
2031;SDS011;27625;50.422;7.944;2023-05-27T08:30:30;2.97;;;1.73;;
2031;SDS011;27625;50.422;7.944;2023-05-27T08:33:05;3.37;;;1.10;;
2031;SDS011;27625;50.422;7.944;2023-05-27T08:35:33;3.50;;;2.50;;
2031;SDS011;27625;50.422;7.944;2023-05-27T08:38:02;4.03;;;2.53;;
2031;SDS011;27625;50.422;7.944;2023-05-27T08:40:35;3.20;;;2.10;;
2031;SDS011;27625;50.422;7.944;2023-05-27T08:43:03;5.67;;;2.30;;
2031;SDS011;27625;50.422;7.944;2023-05-27T08:45:33;2.73;;;1.43;;
2031;SDS011;27625;50.422;7.944;2023-05-27T08:48:02;2.87;;;1.50;;
2031;SDS011;27625;50.422;7.944;2023-05-27T08:50:35;2.93;;;1.60;;
2031;SDS011;27625;50.422;7.944;2023-05-27T08:53:06;7.60;;;2.70;;
2031;SDS011;27625;50.422;7.944;2023-05-27T08:55:33;5.83;;;1.80;;
2031;SDS011;27625;50.422;7.944;2023-05-27T08:58:00;4.53;;;1.80;;
2031;SDS011;27625;50.422;7.944;2023-05-27T09:00:31;3.23;;;1.70;;
2031;SDS011;27625;50.422;7.944;2023-05-27T09:03:08;3.13;;;1.70;;
2031;SDS011;27625;50.422;7.944;2023-05-27T09:05:36;5.80;;;1.93;;
2031;SDS011;27625;50.422;7.944;2023-05-27T09:08:05;5.73;;;1.67;;
2031;SDS011;27625;50.422;7.944;2023-05-27T09:10:46;4.87;;;1.50;;
2031;SDS011;27625;50.422;7.944;2023-05-27T09:13:13;3.07;;;1.50;;
2031;SDS011;27625;50.422;7.944;2023-05-27T09:15:40;2.93;;;1.47;;
2031;SDS011;27625;50.422;7.944;2023-05-27T09:18:08;3.83;;;2.23;;
2031;SDS011;27625;50.422;7.944;2023-05-27T09:20:37;3.40;;;1.77;;
2031;SDS011;27625;50.422;7.944;2023-05-27T09:23:06;8.20;;;1.80;;
2031;SDS011;27625;50.422;7.944;2023-05-27T09:25:34;4.10;;;1.87;;
2031;SDS011;27625;50.422;7.944;2023-05-27T09:28:04;4.13;;;1.47;;
2031;SDS011;27625;50.422;7.944;2023-05-27T09:30:37;3.10;;;1.67;;
2031;SDS011;27625;50.422;7.944;2023-05-27T09:33:03;5.20;;;1.90;;
2031;SDS011;27625;50.422;7.944;2023-05-27T09:35:38;3.27;;;1.70;;
2031;SDS011;27625;50.422;7.944;2023-05-27T09:38:05;3.17;;;1.53;;
2031;SDS011;27625;50.422;7.944;2023-05-27T09:40:35;3.03;;;1.60;;
2031;SDS011;27625;50.422;7.944;2023-05-27T09:43:05;3.97;;;1.70;;
2031;SDS011;27625;50.422;7.944;2023-05-27T09:45:43;3.63;;;1.47;;
2031;SDS011;27625;50.422;7.944;2023-05-27T09:48:11;5.37;;;1.80;;
2031;SDS011;27625;50.422;7.944;2023-05-27T09:50:41;4.37;;;1.10;;
2031;SDS011;27625;50.422;7.944;2023-05-27T09:53:11;3.07;;;1.37;;
2031;SDS011;27625;50.422;7.944;2023-05-27T09:55:38;3.63;;;1.30;;
2031;SDS011;27625;50.422;7.944;2023-05-27T09:58:05;4.20;;;2.13;;
2031;SDS011;27625;50.422;7.944;2023-05-27T10:00:33;9.80;;;1.43;;
2031;SDS011;27625;50.422;7.944;2023-05-27T10:03:01;2.33;;;1.17;;
2031;SDS011;27625;50.422;7.944;2023-05-27T10:05:28;2.37;;;1.27;;
2031;SDS011;27625;50.422;7.944;2023-05-27T10:08:00;2.80;;;0.90;;
2031;SDS011;27625;50.422;7.944;2023-05-27T10:10:27;2.40;;;1.10;;
2031;SDS011;27625;50.422;7.944;2023-05-27T10:12:58;2.83;;;1.10;;
2031;SDS011;27625;50.422;7.944;2023-05-27T10:15:26;2.87;;;1.30;;
2031;SDS011;27625;50.422;7.944;2023-05-27T10:17:55;5.53;;;1.17;;
2031;SDS011;27625;50.422;7.944;2023-05-27T10:20:31;2.23;;;0.80;;
2031;SDS011;27625;50.422;7.944;2023-05-27T10:23:10;2.73;;;1.27;;
2031;SDS011;27625;50.422;7.944;2023-05-27T10:25:40;2.10;;;0.90;;
2031;SDS011;27625;50.422;7.944;2023-05-27T10:28:12;3.07;;;1.20;;
2031;SDS011;27625;50.422;7.944;2023-05-27T10:30:53;2.40;;;1.10;;
2031;SDS011;27625;50.422;7.944;2023-05-27T10:33:30;2.47;;;1.30;;
2031;SDS011;27625;50.422;7.944;2023-05-27T10:36:02;2.60;;;1.20;;
2031;SDS011;27625;50.422;7.944;2023-05-27T10:38:34;2.60;;;1.23;;
2031;SDS011;27625;50.422;7.944;2023-05-27T10:41:01;3.70;;;1.20;;
2031;SDS011;27625;50.422;7.944;2023-05-27T10:43:30;2.67;;;0.80;;
2031;SDS011;27625;50.422;7.944;2023-05-27T10:46:02;2.30;;;1.43;;
2031;SDS011;27625;50.422;7.944;2023-05-27T10:48:30;2.30;;;1.40;;
2031;SDS011;27625;50.422;7.944;2023-05-27T10:51:00;2.17;;;1.00;;
2031;SDS011;27625;50.422;7.944;2023-05-27T10:53:27;2.10;;;1.00;;
2031;SDS011;27625;50.422;7.944;2023-05-27T10:56:00;2.87;;;1.10;;
2031;SDS011;27625;50.422;7.944;2023-05-27T10:58:29;2.90;;;1.27;;
2031;SDS011;27625;50.422;7.944;2023-05-27T11:01:00;2.53;;;1.30;;
2031;SDS011;27625;50.422;7.944;2023-05-27T11:03:31;2.13;;;0.80;;
2031;SDS011;27625;50.422;7.944;2023-05-27T11:05:59;2.20;;;0.90;;
2031;SDS011;27625;50.422;7.944;2023-05-27T11:08:29;2.30;;;1.10;;
2031;SDS011;27625;50.422;7.944;2023-05-27T11:11:02;2.77;;;0.80;;
2031;SDS011;27625;50.422;7.944;2023-05-27T11:13:33;2.40;;;1.00;;
2031;SDS011;27625;50.422;7.944;2023-05-27T11:16:02;2.10;;;1.03;;
2031;SDS011;27625;50.422;7.944;2023-05-27T11:18:37;5.53;;;1.70;;
2031;SDS011;27625;50.422;7.944;2023-05-27T11:21:11;2.30;;;1.03;;
2031;SDS011;27625;50.422;7.944;2023-05-27T11:23:42;3.83;;;1.40;;
2031;SDS011;27625;50.422;7.944;2023-05-27T11:26:12;2.63;;;1.07;;
2031;SDS011;27625;50.422;7.944;2023-05-27T11:28:50;2.50;;;1.00;;
2031;SDS011;27625;50.422;7.944;2023-05-27T11:31:27;2.00;;;0.90;;
2031;SDS011;27625;50.422;7.944;2023-05-27T11:33:57;2.37;;;1.00;;
2031;SDS011;27625;50.422;7.944;2023-05-27T11:36:28;2.60;;;1.07;;
2031;SDS011;27625;50.422;7.944;2023-05-27T11:39:13;2.97;;;1.10;;
2031;SDS011;27625;50.422;7.944;2023-05-27T11:41:53;2.80;;;1.30;;
2031;SDS011;27625;50.422;7.944;2023-05-27T11:44:21;2.27;;;1.10;;
2031;SDS011;27625;50.422;7.944;2023-05-27T11:46:51;2.00;;;0.93;;
2031;SDS011;27625;50.422;7.944;2023-05-27T11:49:19;2.97;;;1.60;;
2031;SDS011;27625;50.422;7.944;2023-05-27T11:51:46;2.50;;;1.40;;
2031;SDS011;27625;50.422;7.944;2023-05-27T11:54:22;3.13;;;1.17;;
2031;SDS011;27625;50.422;7.944;2023-05-27T11:56:50;3.03;;;1.20;;
2031;SDS011;27625;50.422;7.944;2023-05-27T11:59:22;2.57;;;1.00;;
2031;SDS011;27625;50.422;7.944;2023-05-27T12:01:49;4.20;;;1.50;;
2031;SDS011;27625;50.422;7.944;2023-05-27T12:04:28;2.30;;;1.27;;
2031;SDS011;27625;50.422;7.944;2023-05-27T12:06:56;2.60;;;1.10;;
2031;SDS011;27625;50.422;7.944;2023-05-27T12:09:24;2.80;;;1.20;;
2031;SDS011;27625;50.422;7.944;2023-05-27T12:11:53;2.37;;;1.00;;
2031;SDS011;27625;50.422;7.944;2023-05-27T12:14:23;2.20;;;1.10;;
2031;SDS011;27625;50.422;7.944;2023-05-27T12:16:58;3.00;;;1.40;;
2031;SDS011;27625;50.422;7.944;2023-05-27T12:19:25;2.97;;;1.40;;
2031;SDS011;27625;50.422;7.944;2023-05-27T12:21:55;2.63;;;1.13;;
2031;SDS011;27625;50.422;7.944;2023-05-27T12:24:24;2.80;;;1.33;;
2031;SDS011;27625;50.422;7.944;2023-05-27T12:26:50;3.47;;;1.17;;
2031;SDS011;27625;50.422;7.944;2023-05-27T12:29:17;2.63;;;1.10;;
2031;SDS011;27625;50.422;7.944;2023-05-27T12:31:48;2.20;;;0.87;;
2031;SDS011;27625;50.422;7.944;2023-05-27T12:34:16;3.40;;;1.10;;
2031;SDS011;27625;50.422;7.944;2023-05-27T12:36:44;3.43;;;1.83;;
2031;SDS011;27625;50.422;7.944;2023-05-27T12:39:12;2.73;;;1.43;;
2031;SDS011;27625;50.422;7.944;2023-05-27T12:41:39;2.03;;;0.90;;
2031;SDS011;27625;50.422;7.944;2023-05-27T12:44:06;4.57;;;1.43;;
2031;SDS011;27625;50.422;7.944;2023-05-27T12:46:33;3.63;;;1.60;;
2031;SDS011;27625;50.422;7.944;2023-05-27T12:49:01;2.93;;;1.10;;
2031;SDS011;27625;50.422;7.944;2023-05-27T12:51:28;3.37;;;1.50;;
2031;SDS011;27625;50.422;7.944;2023-05-27T12:53:55;5.70;;;1.57;;
2031;SDS011;27625;50.422;7.944;2023-05-27T12:56:22;5.40;;;1.17;;
2031;SDS011;27625;50.422;7.944;2023-05-27T12:58:49;3.33;;;2.00;;
2031;SDS011;27625;50.422;7.944;2023-05-27T13:01:15;2.20;;;1.10;;
2031;SDS011;27625;50.422;7.944;2023-05-27T13:03:42;3.63;;;1.60;;
2031;SDS011;27625;50.422;7.944;2023-05-27T13:06:10;2.40;;;1.00;;
2031;SDS011;27625;50.422;7.944;2023-05-27T13:08:38;2.70;;;1.37;;
2031;SDS011;27625;50.422;7.944;2023-05-27T13:11:05;2.43;;;1.20;;
2031;SDS011;27625;50.422;7.944;2023-05-27T13:13:32;2.70;;;1.33;;
2031;SDS011;27625;50.422;7.944;2023-05-27T13:15:59;3.37;;;1.50;;
2031;SDS011;27625;50.422;7.944;2023-05-27T13:18:26;2.90;;;1.40;;
2031;SDS011;27625;50.422;7.944;2023-05-27T13:20:52;2.20;;;0.90;;
2031;SDS011;27625;50.422;7.944;2023-05-27T13:23:22;2.77;;;1.10;;
2031;SDS011;27625;50.422;7.944;2023-05-27T13:25:49;2.67;;;1.43;;
2031;SDS011;27625;50.422;7.944;2023-05-27T13:28:18;2.27;;;1.00;;
2031;SDS011;27625;50.422;7.944;2023-05-27T13:30:48;2.80;;;1.30;;
2031;SDS011;27625;50.422;7.944;2023-05-27T13:33:18;2.50;;;1.13;;
2031;SDS011;27625;50.422;7.944;2023-05-27T13:35:45;2.93;;;0.90;;
2031;SDS011;27625;50.422;7.944;2023-05-27T13:38:13;2.40;;;0.93;;
2031;SDS011;27625;50.422;7.944;2023-05-27T13:43:12;2.80;;;1.10;;
2031;SDS011;27625;50.422;7.944;2023-05-27T13:45:39;2.90;;;1.33;;
2031;SDS011;27625;50.422;7.944;2023-05-27T13:48:06;2.57;;;1.10;;
2031;SDS011;27625;50.422;7.944;2023-05-27T13:50:33;2.20;;;0.87;;
2031;SDS011;27625;50.422;7.944;2023-05-27T13:53:00;2.60;;;1.13;;
2031;SDS011;27625;50.422;7.944;2023-05-27T13:55:29;2.60;;;1.17;;
2031;SDS011;27625;50.422;7.944;2023-05-27T13:57:59;2.10;;;1.00;;
2031;SDS011;27625;50.422;7.944;2023-05-27T14:00:26;7.17;;;0.90;;
2031;SDS011;27625;50.422;7.944;2023-05-27T14:02:54;3.27;;;1.00;;
2031;SDS011;27625;50.422;7.944;2023-05-27T14:07:54;4.67;;;1.00;;
2031;SDS011;27625;50.422;7.944;2023-05-27T14:10:23;5.27;;;1.50;;
2031;SDS011;27625;50.422;7.944;2023-05-27T14:12:50;3.13;;;1.20;;
2031;SDS011;27625;50.422;7.944;2023-05-27T14:15:18;2.00;;;0.90;;
2031;SDS011;27625;50.422;7.944;2023-05-27T14:17:46;2.77;;;1.17;;
2031;SDS011;27625;50.422;7.944;2023-05-27T14:20:14;2.33;;;1.13;;
2031;SDS011;27625;50.422;7.944;2023-05-27T14:22:43;2.50;;;1.37;;
2031;SDS011;27625;50.422;7.944;2023-05-27T14:25:11;2.87;;;1.00;;
2031;SDS011;27625;50.422;7.944;2023-05-27T14:27:38;3.30;;;1.50;;
2031;SDS011;27625;50.422;7.944;2023-05-27T14:30:06;2.10;;;0.90;;
2031;SDS011;27625;50.422;7.944;2023-05-27T14:32:35;5.37;;;1.97;;
2031;SDS011;27625;50.422;7.944;2023-05-27T14:35:04;3.90;;;1.00;;
2031;SDS011;27625;50.422;7.944;2023-05-27T14:37:34;2.60;;;0.90;;
2031;SDS011;27625;50.422;7.944;2023-05-27T14:40:03;3.07;;;1.07;;
2031;SDS011;27625;50.422;7.944;2023-05-27T14:42:31;2.30;;;1.40;;
2031;SDS011;27625;50.422;7.944;2023-05-27T14:44:58;2.93;;;1.33;;
2031;SDS011;27625;50.422;7.944;2023-05-27T14:47:26;3.17;;;1.13;;
2031;SDS011;27625;50.422;7.944;2023-05-27T14:49:55;2.63;;;0.90;;
2031;SDS011;27625;50.422;7.944;2023-05-27T14:52:23;2.50;;;1.30;;
2031;SDS011;27625;50.422;7.944;2023-05-27T14:54:50;2.80;;;1.27;;
2031;SDS011;27625;50.422;7.944;2023-05-27T14:57:16;2.30;;;0.97;;
2031;SDS011;27625;50.422;7.944;2023-05-27T14:59:43;2.80;;;1.17;;
2031;SDS011;27625;50.422;7.944;2023-05-27T15:02:10;2.40;;;1.00;;
2031;SDS011;27625;50.422;7.944;2023-05-27T15:04:46;2.20;;;1.27;;
2031;SDS011;27625;50.422;7.944;2023-05-27T15:07:15;2.90;;;1.40;;
2031;SDS011;27625;50.422;7.944;2023-05-27T15:09:44;2.30;;;1.10;;
2031;SDS011;27625;50.422;7.944;2023-05-27T15:12:11;2.20;;;0.97;;
2031;SDS011;27625;50.422;7.944;2023-05-27T15:14:42;3.80;;;1.30;;
2031;SDS011;27625;50.422;7.944;2023-05-27T15:17:11;3.07;;;1.43;;
2031;SDS011;27625;50.422;7.944;2023-05-27T15:19:39;3.40;;;0.90;;
2031;SDS011;27625;50.422;7.944;2023-05-27T15:22:09;2.93;;;1.00;;
2031;SDS011;27625;50.422;7.944;2023-05-27T15:24:44;2.77;;;1.17;;